Time;durP1;ratioP1;P1;durP2;ratioP2;P2;SDS_P1;SDS_P2;PMS_P1;PMS_P2;Temp;Humidity;BMP_temperature;BMP_pressure;BME280_temperature;BME280_humidity;BME280_pressure;Samples;Min_cycle;Max_cycle;Signal;HPM_P1;HPM_P2
2024/01/16 00:02:13;;;;;;;36.25;22.20;;;;;;;;;;10255383;28;20072;-63
2024/01/16 00:07:11;;;;;;;12.63;10.30;;;;;;;;;;10252890;28;20065;-62
2024/01/16 00:12:11;;;;;;;17.40;12.05;;;;;;;;;;10253265;28;20065;-62
2024/01/16 00:17:09;;;;;;;24.17;16.83;;;;;;;;;;10250998;28;20056;-62
2024/01/16 00:22:07;;;;;;;16.15;11.00;;;;;;;;;;10254364;28;20077;-62
2024/01/16 00:27:06;;;;;;;19.40;13.80;;;;;;;;;;10252000;28;20080;-62
2024/01/16 00:32:09;;;;;;;22.20;15.55;;;;;;;;;;10249887;28;20068;-62
2024/01/16 00:37:07;;;;;;;20.88;14.27;;;;;;;;;;10253643;28;20073;-62
2024/01/16 00:42:05;;;;;;;21.58;15.05;;;;;;;;;;10252535;28;20491;-62
2024/01/16 00:47:05;;;;;;;21.60;15.23;;;;;;;;;;10254005;28;20080;-62
2024/01/16 00:52:06;;;;;;;22.70;16.38;;;;;;;;;;10254653;28;20080;-62
2024/01/16 00:57:04;;;;;;;12.95;10.35;;;;;;;;;;10252167;28;20077;-62
2024/01/16 01:02:03;;;;;;;14.88;11.10;;;;;;;;;;10254031;28;20072;-62
2024/01/16 01:07:01;;;;;;;14.93;12.68;;;;;;;;;;10251254;28;20065;-62
2024/01/16 01:12:01;;;;;;;18.05;14.82;;;;;;;;;;10251570;28;20072;-62
2024/01/16 01:16:59;;;;;;;20.33;13.63;;;;;;;;;;10252724;28;20076;-62
2024/01/16 01:21:58;;;;;;;16.52;13.23;;;;;;;;;;10252521;28;20107;-62
2024/01/16 01:26:56;;;;;;;14.00;11.70;;;;;;;;;;10253353;28;20073;-63
2024/01/16 01:31:56;;;;;;;16.80;12.52;;;;;;;;;;10248947;28;20518;-63
2024/01/16 01:36:57;;;;;;;16.80;13.80;;;;;;;;;;10250191;28;20083;-62
2024/01/16 01:41:55;;;;;;;19.10;13.18;;;;;;;;;;10246199;28;20071;-64
2024/01/16 01:46:55;;;;;;;17.60;12.30;;;;;;;;;;10251973;28;20535;-63
2024/01/16 01:51:54;;;;;;;21.85;13.98;;;;;;;;;;10231464;28;20081;-62
2024/01/16 01:56:53;;;;;;;15.55;12.73;;;;;;;;;;10247996;28;20166;-63
2024/01/16 02:01:53;;;;;;;11.52;9.95;;;;;;;;;;10247246;28;20071;-64
2024/01/16 02:06:53;;;;;;;13.85;12.20;;;;;;;;;;10245055;28;20088;-62
2024/01/16 02:11:51;;;;;;;17.85;13.88;;;;;;;;;;10246298;28;20553;-62
2024/01/16 02:16:49;;;;;;;29.83;18.05;;;;;;;;;;10248494;28;20057;-62
2024/01/16 02:21:48;;;;;;;20.75;16.23;;;;;;;;;;10246297;28;20083;-63
2024/01/16 02:26:49;;;;;;;16.67;13.68;;;;;;;;;;10250912;28;20076;-63
2024/01/16 02:31:48;;;;;;;16.88;13.93;;;;;;;;;;10245516;28;20080;-62
2024/01/16 02:36:46;;;;;;;49.10;29.20;;;;;;;;;;10247827;28;20490;-62
2024/01/16 02:41:44;;;;;;;18.30;13.23;;;;;;;;;;10248445;28;20085;-62
2024/01/16 02:46:44;;;;;;;18.38;16.30;;;;;;;;;;10247987;28;20076;-62
2024/01/16 02:51:42;;;;;;;18.23;16.33;;;;;;;;;;10247292;28;20079;-64
2024/01/16 02:56:42;;;;;;;18.27;15.70;;;;;;;;;;10251030;28;20140;-62
2024/01/16 03:01:40;;;;;;;17.55;11.82;;;;;;;;;;10246866;28;20069;-62
2024/01/16 03:06:40;;;;;;;48.03;31.33;;;;;;;;;;10243852;28;20077;-62
2024/01/16 03:11:38;;;;;;;30.75;25.85;;;;;;;;;;10245768;28;20072;-62
2024/01/16 03:16:36;;;;;;;21.17;18.55;;;;;;;;;;10242950;28;20058;-62
2024/01/16 03:21:34;;;;;;;23.20;16.75;;;;;;;;;;10242745;28;20084;-62
2024/01/16 03:26:34;;;;;;;23.35;18.95;;;;;;;;;;10246895;28;20046;-62
2024/01/16 03:31:32;;;;;;;21.90;18.17;;;;;;;;;;10246874;28;20075;-62
2024/01/16 03:36:31;;;;;;;26.92;19.38;;;;;;;;;;10248902;28;20722;-62
2024/01/16 03:41:29;;;;;;;22.33;16.88;;;;;;;;;;10246119;28;20064;-62
2024/01/16 03:46:29;;;;;;;28.52;19.25;;;;;;;;;;10246667;28;20057;-62
2024/01/16 03:51:27;;;;;;;27.17;19.58;;;;;;;;;;10247227;28;20077;-62
2024/01/16 03:56:25;;;;;;;21.92;19.27;;;;;;;;;;10248050;28;20065;-62
2024/01/16 04:01:32;;;;;;;21.83;18.15;;;;;;;;;;10245811;28;20072;-62
2024/01/16 04:06:32;;;;;;;25.17;18.88;;;;;;;;;;10246800;28;20075;-62
2024/01/16 04:11:30;;;;;;;26.77;21.45;;;;;;;;;;10245373;28;20072;-61
2024/01/16 04:16:28;;;;;;;25.30;20.45;;;;;;;;;;10247690;28;20453;-63
2024/01/16 04:21:28;;;;;;;25.63;19.92;;;;;;;;;;10253031;28;20057;-62
2024/01/16 04:26:26;;;;;;;25.88;20.92;;;;;;;;;;10251151;28;20065;-61
2024/01/16 04:31:24;;;;;;;32.00;22.77;;;;;;;;;;10252752;28;20084;-62
2024/01/16 04:36:23;;;;;;;24.40;20.52;;;;;;;;;;10252943;28;20076;-62
2024/01/16 04:41:22;;;;;;;28.13;22.35;;;;;;;;;;10250279;28;20080;-62
2024/01/16 04:46:20;;;;;;;33.38;25.75;;;;;;;;;;10250615;28;20072;-62
2024/01/16 04:51:19;;;;;;;36.40;24.05;;;;;;;;;;10251558;28;20503;-62
2024/01/16 04:56:17;;;;;;;27.55;21.38;;;;;;;;;;10252628;28;20080;-62
2024/01/16 05:01:16;;;;;;;31.20;23.75;;;;;;;;;;10252689;28;20631;-62
2024/01/16 05:06:15;;;;;;;35.25;27.33;;;;;;;;;;10250297;28;20073;-64
2024/01/16 05:11:14;;;;;;;36.85;28.20;;;;;;;;;;10250093;28;20068;-63
2024/01/16 05:16:12;;;;;;;38.90;29.15;;;;;;;;;;10251951;28;20479;-62
2024/01/16 05:21:11;;;;;;;38.67;27.13;;;;;;;;;;10248843;28;20072;-62
2024/01/16 05:26:10;;;;;;;33.17;26.30;;;;;;;;;;10249362;28;20075;-61
2024/01/16 05:31:08;;;;;;;29.58;22.52;;;;;;;;;;10247252;28;20099;-61
2024/01/16 05:36:07;;;;;;;35.33;24.85;;;;;;;;;;10246674;28;20478;-61
2024/01/16 05:41:07;;;;;;;29.80;24.05;;;;;;;;;;10252132;28;20061;-61
2024/01/16 05:46:05;;;;;;;26.67;23.65;;;;;;;;;;10249295;28;20091;-62
2024/01/16 05:51:04;;;;;;;30.20;23.55;;;;;;;;;;10250578;28;20071;-62
2024/01/16 05:56:03;;;;;;;28.85;23.77;;;;;;;;;;10252653;28;20061;-62
2024/01/16 06:01:02;;;;;;;25.52;21.83;;;;;;;;;;10249843;28;20069;-61
2024/01/16 06:06:00;;;;;;;29.98;23.58;;;;;;;;;;10233275;28;20486;-61
2024/01/16 06:10:59;;;;;;;29.98;22.65;;;;;;;;;;10224762;28;20148;-61
2024/01/16 06:15:57;;;;;;;32.00;25.70;;;;;;;;;;10241731;28;20076;-60
2024/01/16 06:20:57;;;;;;;30.13;24.42;;;;;;;;;;10243997;28;20065;-61
2024/01/16 06:25:55;;;;;;;26.17;19.63;;;;;;;;;;10239364;28;20555;-62
2024/01/16 06:30:53;;;;;;;26.20;19.88;;;;;;;;;;10227448;28;20534;-61
2024/01/16 06:35:52;;;;;;;21.48;17.17;;;;;;;;;;10234733;28;20076;-61
2024/01/16 06:40:52;;;;;;;21.05;16.58;;;;;;;;;;10221376;28;20068;-62
2024/01/16 06:45:51;;;;;;;21.75;17.52;;;;;;;;;;10241482;28;20073;-63
2024/01/16 06:50:49;;;;;;;18.85;15.65;;;;;;;;;;10238695;28;20073;-62
2024/01/16 06:55:47;;;;;;;17.83;14.93;;;;;;;;;;10239770;28;20083;-62
2024/01/16 07:00:47;;;;;;;16.48;12.98;;;;;;;;;;10238026;28;20494;-62
2024/01/16 07:05:45;;;;;;;29.27;19.50;;;;;;;;;;10239141;28;20140;-62
2024/01/16 07:10:44;;;;;;;18.65;14.65;;;;;;;;;;10243500;28;20575;-62
2024/01/16 07:15:42;;;;;;;22.38;15.07;;;;;;;;;;10241642;28;20061;-63
2024/01/16 07:20:42;;;;;;;17.17;13.20;;;;;;;;;;10239560;28;20084;-63
2024/01/16 07:25:40;;;;;;;15.77;12.68;;;;;;;;;;10242785;28;20116;-61
2024/01/16 07:30:39;;;;;;;19.60;14.75;;;;;;;;;;10240412;28;20089;-61
2024/01/16 07:35:40;;;;;;;28.15;18.83;;;;;;;;;;10241063;28;20079;-61
2024/01/16 07:40:40;;;;;;;19.20;13.98;;;;;;;;;;10243624;28;20554;-61
2024/01/16 07:45:38;;;;;;;19.75;13.63;;;;;;;;;;10238187;28;20095;-62
2024/01/16 07:50:37;;;;;;;17.38;13.70;;;;;;;;;;10238465;28;20096;-61
2024/01/16 07:55:35;;;;;;;10.52;8.43;;;;;;;;;;10250190;28;20073;-63
2024/01/16 08:00:34;;;;;;;60.50;24.15;;;;;;;;;;10252761;28;20464;-62
2024/01/16 08:05:33;;;;;;;9.88;8.88;;;;;;;;;;10253649;28;20064;-62
2024/01/16 08:10:31;;;;;;;14.63;10.32;;;;;;;;;;10235997;28;21054;-62
2024/01/16 08:15:29;;;;;;;11.10;6.78;;;;;;;;;;10254414;28;20068;-62
2024/01/16 08:20:29;;;;;;;19.95;12.48;;;;;;;;;;10255639;28;20077;-62
2024/01/16 08:25:27;;;;;;;14.77;9.77;;;;;;;;;;10253375;28;20065;-61
2024/01/16 08:30:25;;;;;;;9.13;6.07;;;;;;;;;;10253561;28;20072;-61
2024/01/16 08:35:24;;;;;;;10.52;8.13;;;;;;;;;;10251376;28;20079;-61
2024/01/16 08:40:23;;;;;;;11.52;8.88;;;;;;;;;;10250985;28;20175;-61
2024/01/16 08:45:22;;;;;;;14.27;9.88;;;;;;;;;;10251150;28;20084;-62
2024/01/16 08:50:20;;;;;;;14.32;8.10;;;;;;;;;;10237643;28;20426;-62
2024/01/16 08:55:18;;;;;;;16.08;11.70;;;;;;;;;;10249716;28;20075;-62
2024/01/16 09:00:18;;;;;;;8.23;7.05;;;;;;;;;;10253150;28;20077;-62
2024/01/16 09:05:16;;;;;;;7.55;6.40;;;;;;;;;;10250896;28;20108;-62
2024/01/16 09:10:15;;;;;;;4.50;4.07;;;;;;;;;;10252565;28;20144;-62
2024/01/16 09:15:13;;;;;;;5.50;4.90;;;;;;;;;;10250537;28;20073;-62
2024/01/16 09:20:13;;;;;;;7.55;6.03;;;;;;;;;;10250757;28;20068;-62
2024/01/16 09:25:11;;;;;;;42.70;24.17;;;;;;;;;;10247011;28;20068;-62
2024/01/16 09:30:12;;;;;;;15.55;11.55;;;;;;;;;;10231063;28;20545;-62
2024/01/16 09:35:11;;;;;;;10.55;7.10;;;;;;;;;;10246817;28;20533;-62
2024/01/16 09:40:11;;;;;;;10.32;6.95;;;;;;;;;;10245913;28;20072;-62
2024/01/16 09:45:10;;;;;;;19.08;11.00;;;;;;;;;;10245666;28;20510;-62
2024/01/16 09:50:08;;;;;;;10.48;6.50;;;;;;;;;;10247328;28;20103;-62
2024/01/16 09:55:07;;;;;;;10.10;6.75;;;;;;;;;;10246936;28;20156;-62
2024/01/16 10:00:08;;;;;;;12.30;6.97;;;;;;;;;;10247540;28;20521;-62
2024/01/16 10:05:08;;;;;;;11.82;9.05;;;;;;;;;;10247453;28;20073;-62
2024/01/16 10:10:10;;;;;;;11.88;8.02;;;;;;;;;;10242775;28;20077;-62
2024/01/16 10:15:10;;;;;;;8.68;7.78;;;;;;;;;;10244502;28;20065;-62
2024/01/16 10:20:13;;;;;;;6.95;5.82;;;;;;;;;;10247159;28;20068;-61
2024/01/16 10:25:16;;;;;;;10.65;7.43;;;;;;;;;;10245720;28;20080;-61
2024/01/16 10:30:22;;;;;;;7.18;5.75;;;;;;;;;;10247531;28;20464;-61
2024/01/16 10:35:20;;;;;;;13.63;8.85;;;;;;;;;;10246868;28;20071;-61
2024/01/16 10:40:19;;;;;;;14.68;11.20;;;;;;;;;;10250295;28;20069;-61
2024/01/16 10:45:23;;;;;;;9.65;7.65;;;;;;;;;;10245631;28;20077;-62
2024/01/16 10:50:21;;;;;;;19.80;11.88;;;;;;;;;;10246879;28;20514;-61
2024/01/16 10:55:22;;;;;;;10.75;8.70;;;;;;;;;;10245668;28;20079;-62
2024/01/16 11:00:21;;;;;;;6.05;5.15;;;;;;;;;;10240638;28;20144;-61
2024/01/16 11:05:21;;;;;;;7.28;5.80;;;;;;;;;;10246664;28;20073;-62
2024/01/16 11:10:24;;;;;;;7.45;6.55;;;;;;;;;;10243955;28;20166;-62
2024/01/16 11:15:23;;;;;;;8.90;6.70;;;;;;;;;;10244300;28;20084;-61
2024/01/16 11:20:23;;;;;;;12.70;9.70;;;;;;;;;;10244772;28;20072;-63
2024/01/16 11:25:41;;;;;;;6.45;5.80;;;;;;;;;;10246284;28;20076;-62
2024/01/16 11:30:39;;;;;;;6.35;5.20;;;;;;;;;;10245456;28;20081;-61
2024/01/16 11:35:39;;;;;;;10.23;7.35;;;;;;;;;;10243076;28;20561;-62
2024/01/16 11:40:38;;;;;;;6.30;5.70;;;;;;;;;;10247052;28;20064;-62
2024/01/16 11:45:49;;;;;;;6.35;5.57;;;;;;;;;;10240135;28;20080;-62
2024/01/16 11:50:48;;;;;;;5.95;5.45;;;;;;;;;;10244442;28;20559;-61
2024/01/16 11:55:54;;;;;;;5.93;5.32;;;;;;;;;;10246243;28;20072;-61
2024/01/16 12:00:53;;;;;;;8.10;5.47;;;;;;;;;;10246952;28;20072;-62
2024/01/16 12:05:57;;;;;;;6.25;5.65;;;;;;;;;;10242460;28;20631;-62
2024/01/16 12:10:55;;;;;;;5.40;4.90;;;;;;;;;;10242240;28;20084;-62
2024/01/16 12:16:00;;;;;;;6.38;5.82;;;;;;;;;;10242042;28;20098;-62
2024/01/16 12:21:08;;;;;;;7.30;6.40;;;;;;;;;;10243458;28;20167;-62
2024/01/16 12:26:06;;;;;;;5.80;4.85;;;;;;;;;;10242963;28;20045;-62
2024/01/16 12:31:05;;;;;;;6.63;5.07;;;;;;;;;;10245979;28;20069;-62
2024/01/16 12:36:05;;;;;;;5.70;5.10;;;;;;;;;;10244810;28;20072;-61
2024/01/16 12:41:07;;;;;;;9.45;4.93;;;;;;;;;;10252314;28;20071;-62
2024/01/16 12:46:06;;;;;;;7.93;5.88;;;;;;;;;;10250794;28;20124;-62
2024/01/16 12:51:06;;;;;;;26.50;16.63;;;;;;;;;;10250696;28;20068;-62
2024/01/16 12:56:06;;;;;;;6.15;5.50;;;;;;;;;;10250157;28;20542;-62
2024/01/16 13:01:23;;;;;;;6.10;5.50;;;;;;;;;;10252623;28;20088;-62
2024/01/16 13:06:38;;;;;;;6.03;5.03;;;;;;;;;;10253066;28;20146;-62
2024/01/16 13:11:46;;;;;;;8.90;6.15;;;;;;;;;;10246962;28;20073;-61
2024/01/16 13:16:45;;;;;;;4.00;3.70;;;;;;;;;;10250974;28;20455;-61
2024/01/16 13:21:44;;;;;;;7.03;5.65;;;;;;;;;;10250904;28;20084;-61
2024/01/16 13:26:43;;;;;;;5.65;5.05;;;;;;;;;;10248272;28;20108;-62
2024/01/16 13:31:41;;;;;;;7.30;6.00;;;;;;;;;;10246028;28;20089;-61
2024/01/16 13:36:40;;;;;;;19.58;12.75;;;;;;;;;;10247436;28;20081;-62
2024/01/16 13:41:59;;;;;;;8.32;7.55;;;;;;;;;;10251578;28;20072;-62
2024/01/16 13:46:57;;;;;;;6.85;6.22;;;;;;;;;;10247726;28;20085;-62
2024/01/16 13:52:07;;;;;;;113.45;50.42;;;;;;;;;;10248804;28;20083;-62
2024/01/16 13:57:07;;;;;;;7.90;6.38;;;;;;;;;;10251941;28;20491;-63
2024/01/16 14:02:09;;;;;;;12.93;8.00;;;;;;;;;;10246961;28;20069;-62
2024/01/16 14:07:07;;;;;;;8.07;5.75;;;;;;;;;;10249448;28;20073;-62
2024/01/16 14:12:12;;;;;;;6.03;5.30;;;;;;;;;;10247001;28;20068;-63
2024/01/16 14:17:11;;;;;;;5.75;5.25;;;;;;;;;;10249603;28;20472;-62
2024/01/16 14:22:09;;;;;;;8.75;7.68;;;;;;;;;;10246317;28;20076;-62
2024/01/16 14:27:10;;;;;;;10.63;7.20;;;;;;;;;;10248326;28;20075;-61
2024/01/16 14:32:10;;;;;;;9.23;7.25;;;;;;;;;;10247714;28;20079;-61
2024/01/16 14:37:09;;;;;;;19.73;13.68;;;;;;;;;;10247168;28;20084;-62
2024/01/16 14:42:09;;;;;;;32.13;20.98;;;;;;;;;;10245848;28;20073;-61
2024/01/16 14:47:11;;;;;;;15.77;9.82;;;;;;;;;;10230172;28;20092;-61
2024/01/16 14:52:10;;;;;;;18.70;16.67;;;;;;;;;;10246778;28;20080;-61
2024/01/16 14:57:09;;;;;;;26.38;23.58;;;;;;;;;;10251933;28;20065;-61
2024/01/16 15:02:12;;;;;;;23.80;21.27;;;;;;;;;;10245976;28;20071;-62
2024/01/16 15:07:12;;;;;;;15.40;13.80;;;;;;;;;;10246968;28;20075;-62
2024/01/16 15:12:10;;;;;;;9.38;8.20;;;;;;;;;;10245226;28;20045;-61
2024/01/16 15:17:09;;;;;;;121.28;61.92;;;;;;;;;;10244278;28;20073;-61
2024/01/16 15:22:07;;;;;;;11.27;8.95;;;;;;;;;;10242612;28;20083;-61
2024/01/16 15:27:06;;;;;;;40.63;25.35;;;;;;;;;;10247866;28;20065;-62
2024/01/16 15:32:06;;;;;;;44.50;26.52;;;;;;;;;;10240132;28;20069;-62
2024/01/16 15:37:04;;;;;;;43.10;26.38;;;;;;;;;;10243140;28;20068;-62
2024/01/16 15:42:02;;;;;;;26.77;20.00;;;;;;;;;;10245269;28;20533;-61
2024/01/16 15:47:03;;;;;;;22.10;15.60;;;;;;;;;;10246345;28;20467;-61
2024/01/16 15:52:01;;;;;;;33.83;30.45;;;;;;;;;;10241870;28;20080;-62
2024/01/16 15:57:00;;;;;;;40.50;24.30;;;;;;;;;;10241186;28;20072;-62
2024/01/16 16:01:58;;;;;;;110.85;63.45;;;;;;;;;;10240795;28;20073;-62
2024/01/16 16:07:03;;;;;;;27.67;20.15;;;;;;;;;;10248187;28;20072;-61
2024/01/16 16:12:01;;;;;;;18.55;11.85;;;;;;;;;;10243694;28;20069;-59
2024/01/16 16:17:02;;;;;;;22.80;15.50;;;;;;;;;;10252773;28;20507;-60
2024/01/16 16:22:01;;;;;;;34.05;22.55;;;;;;;;;;10251005;28;20484;-61
2024/01/16 16:27:00;;;;;;;30.98;20.05;;;;;;;;;;10249149;28;20076;-62
2024/01/16 16:31:58;;;;;;;27.05;19.35;;;;;;;;;;10252918;28;20076;-61
2024/01/16 16:36:56;;;;;;;37.25;25.27;;;;;;;;;;10247225;28;20157;-60
2024/01/16 16:41:56;;;;;;;18.63;14.52;;;;;;;;;;10247996;28;20065;-61
2024/01/16 16:46:54;;;;;;;28.55;19.20;;;;;;;;;;10247178;28;20100;-61
2024/01/16 16:51:52;;;;;;;33.08;20.98;;;;;;;;;;10245694;28;20069;-61
2024/01/16 16:56:51;;;;;;;16.40;10.93;;;;;;;;;;10250699;28;20080;-62
2024/01/16 17:01:51;;;;;;;18.65;13.70;;;;;;;;;;10246721;28;20080;-61
2024/01/16 17:06:50;;;;;;;16.55;12.85;;;;;;;;;;10248102;28;20530;-60
2024/01/16 17:11:48;;;;;;;73.68;35.42;;;;;;;;;;10245362;28;20482;-61
2024/01/16 17:16:47;;;;;;;21.40;16.65;;;;;;;;;;10248608;28;20080;-62
2024/01/16 17:21:47;;;;;;;23.00;16.95;;;;;;;;;;10239602;28;20088;-61
2024/01/16 17:26:45;;;;;;;26.75;18.33;;;;;;;;;;10247887;28;20060;-62
2024/01/16 17:31:44;;;;;;;28.88;20.73;;;;;;;;;;10248641;28;20567;-62
2024/01/16 17:36:43;;;;;;;16.83;13.07;;;;;;;;;;10243243;28;20085;-60
2024/01/16 17:41:45;;;;;;;29.98;20.17;;;;;;;;;;10258289;28;20065;-61
2024/01/16 17:46:44;;;;;;;46.38;29.13;;;;;;;;;;10244150;28;20601;-61
2024/01/16 17:51:46;;;;;;;67.05;40.00;;;;;;;;;;10248417;28;20076;-61
2024/01/16 17:56:47;;;;;;;26.30;20.05;;;;;;;;;;10234093;28;20088;-61
2024/01/16 18:01:46;;;;;;;34.03;20.27;;;;;;;;;;10246870;28;20467;-61
2024/01/16 18:06:45;;;;;;;17.33;13.50;;;;;;;;;;10248657;28;20064;-61
2024/01/16 18:11:54;;;;;;;80.90;44.45;;;;;;;;;;10246632;28;20057;-61
2024/01/16 18:16:53;;;;;;;54.50;31.25;;;;;;;;;;10246993;28;20501;-61
2024/01/16 18:21:52;;;;;;;22.85;16.92;;;;;;;;;;10243865;28;20064;-61
2024/01/16 18:26:50;;;;;;;36.55;22.67;;;;;;;;;;10239281;28;20081;-61
2024/01/16 18:31:50;;;;;;;40.42;26.45;;;;;;;;;;10248164;28;20080;-61
2024/01/16 18:36:49;;;;;;;48.40;29.08;;;;;;;;;;10232744;28;20069;-61
2024/01/16 18:41:48;;;;;;;24.48;17.02;;;;;;;;;;10232345;28;20477;-61
2024/01/16 18:46:46;;;;;;;21.20;15.77;;;;;;;;;;10249031;28;20084;-61
2024/01/16 18:51:47;;;;;;;13.50;10.05;;;;;;;;;;10252669;28;20639;-61
2024/01/16 18:56:45;;;;;;;7.22;5.93;;;;;;;;;;10241880;28;20089;-60
2024/01/16 19:01:44;;;;;;;13.43;11.20;;;;;;;;;;10232602;28;20528;-61
2024/01/16 19:06:44;;;;;;;10.60;9.50;;;;;;;;;;10236496;28;20095;-60
2024/01/16 19:11:49;;;;;;;18.67;15.07;;;;;;;;;;10240249;28;20666;-60
2024/01/16 19:16:49;;;;;;;;;;;;;;;;;;10239445;28;20085;-61
2024/01/16 19:21:47;;;;;;;7.88;6.25;;;;;;;;;;10239970;28;19972;-61
2024/01/16 19:26:45;;;;;;;7.43;6.47;;;;;;;;;;10243465;28;20080;-61
2024/01/16 19:31:46;;;;;;;14.48;11.95;;;;;;;;;;10241487;28;20079;-61
2024/01/16 19:36:48;;;;;;;12.73;10.32;;;;;;;;;;10243983;28;20087;-61
2024/01/16 19:41:46;;;;;;;8.77;7.28;;;;;;;;;;10242623;28;20077;-62
2024/01/16 19:46:46;;;;;;;6.95;6.20;;;;;;;;;;10242160;28;20085;-60
2024/01/16 19:51:45;;;;;;;7.88;6.70;;;;;;;;;;10251408;28;20077;-58
2024/01/16 19:56:43;;;;;;;7.90;7.00;;;;;;;;;;10237136;28;20501;-59
2024/01/16 20:01:41;;;;;;;6.70;6.07;;;;;;;;;;10242464;28;20613;-59
2024/01/16 20:06:43;;;;;;;6.55;5.93;;;;;;;;;;10249243;28;20520;-58
2024/01/16 20:11:42;;;;;;;31.45;25.95;;;;;;;;;;10248386;28;20081;-60
2024/01/16 20:16:40;;;;;;;61.15;41.67;;;;;;;;;;10250319;28;20545;-60
2024/01/16 20:21:40;;;;;;;61.00;38.80;;;;;;;;;;10256618;28;20462;-59
2024/01/16 20:26:40;;;;;;;59.65;38.97;;;;;;;;;;10248932;28;20075;-58
2024/01/16 20:31:40;;;;;;;48.05;32.83;;;;;;;;;;10246246;28;20518;-60
2024/01/16 20:36:39;;;;;;;41.70;29.13;;;;;;;;;;10245551;28;20493;-60
2024/01/16 20:41:37;;;;;;;69.90;44.08;;;;;;;;;;10244409;28;20091;-59
2024/01/16 20:46:37;;;;;;;78.03;47.88;;;;;;;;;;10248039;28;20101;-59
2024/01/16 20:51:36;;;;;;;80.60;52.63;;;;;;;;;;10252523;28;20091;-59
2024/01/16 20:56:34;;;;;;;78.63;50.15;;;;;;;;;;10253200;28;20080;-58
2024/01/16 21:01:32;;;;;;;79.18;51.42;;;;;;;;;;10249896;28;20077;-59
2024/01/16 21:06:31;;;;;;;72.80;45.42;;;;;;;;;;10251217;28;20068;-60
2024/01/16 21:11:30;;;;;;;50.72;32.17;;;;;;;;;;10250920;28;20073;-60
2024/01/16 21:16:29;;;;;;;66.25;43.58;;;;;;;;;;10250547;28;20383;-60
2024/01/16 21:21:27;;;;;;;37.33;23.05;;;;;;;;;;10247254;28;20076;-59
2024/01/16 21:26:27;;;;;;;38.58;23.73;;;;;;;;;;10244637;28;20081;-60
2024/01/16 21:31:26;;;;;;;29.35;19.08;;;;;;;;;;10249244;28;20510;-59
2024/01/16 21:36:24;;;;;;;171.90;88.47;;;;;;;;;;10247304;28;20534;-59
2024/01/16 21:41:22;;;;;;;96.47;55.33;;;;;;;;;;10245343;28;20497;-60
2024/01/16 21:46:22;;;;;;;113.03;65.97;;;;;;;;;;10248018;28;20083;-60
2024/01/16 21:51:20;;;;;;;113.50;72.57;;;;;;;;;;10251472;28;20100;-58
2024/01/16 21:56:18;;;;;;;144.45;85.90;;;;;;;;;;10248584;28;20077;-58
2024/01/16 22:01:17;;;;;;;42.80;30.98;;;;;;;;;;10246202;28;20076;-60
2024/01/16 22:06:21;;;;;;;80.90;49.70;;;;;;;;;;10243335;28;20076;-60
2024/01/16 22:11:19;;;;;;;45.42;31.30;;;;;;;;;;10246451;28;20077;-60
2024/01/16 22:16:17;;;;;;;71.93;52.33;;;;;;;;;;10247917;28;20483;-59
2024/01/16 22:21:16;;;;;;;40.30;27.60;;;;;;;;;;10248525;28;20061;-59
2024/01/16 22:26:15;;;;;;;31.38;23.40;;;;;;;;;;10248656;28;20486;-59
2024/01/16 22:31:14;;;;;;;52.17;37.42;;;;;;;;;;10249800;28;20107;-60
2024/01/16 22:36:13;;;;;;;25.88;20.58;;;;;;;;;;10249611;28;20510;-60
2024/01/16 22:41:11;;;;;;;30.13;22.58;;;;;;;;;;10244919;28;20529;-60
2024/01/16 22:46:11;;;;;;;34.42;25.23;;;;;;;;;;10248841;28;20080;-59
2024/01/16 22:51:09;;;;;;;28.90;20.65;;;;;;;;;;10249797;28;20069;-60
2024/01/16 22:56:08;;;;;;;28.98;22.23;;;;;;;;;;10247320;28;20401;-59
2024/01/16 23:01:07;;;;;;;18.27;15.23;;;;;;;;;;10250086;28;20451;-60
2024/01/16 23:06:07;;;;;;;17.70;13.90;;;;;;;;;;10247574;28;20073;-60
2024/01/16 23:11:05;;;;;;;12.73;10.27;;;;;;;;;;10246329;28;20118;-60
2024/01/16 23:16:03;;;;;;;11.70;10.25;;;;;;;;;;10245438;28;20072;-60
2024/01/16 23:21:02;;;;;;;15.80;12.02;;;;;;;;;;10246620;28;20502;-59
2024/01/16 23:26:02;;;;;;;50.30;30.33;;;;;;;;;;10245397;28;20467;-60
2024/01/16 23:31:01;;;;;;;13.23;11.82;;;;;;;;;;10245439;28;20076;-60
2024/01/16 23:35:59;;;;;;;9.25;8.00;;;;;;;;;;10246617;28;20081;-61
2024/01/16 23:40:58;;;;;;;8.13;7.30;;;;;;;;;;10244832;28;20080;-61
2024/01/16 23:46:00;;;;;;;11.25;7.82;;;;;;;;;;10244383;28;20084;-60
2024/01/16 23:50:58;;;;;;;9.40;7.65;;;;;;;;;;10247415;28;20076;-58
2024/01/16 23:55:56;;;;;;;8.55;7.43;;;;;;;;;;10245160;28;20545;-59
